Pagina principală
METAR-TAF:

METAR-TAF

Aeroporturi :

Kozani, Grecia

Latitudine: 40-18N, longitudine: 021-47E, elevație: 634 m

Observații meteo curente

Raportul a fost făcut în urmă cu 1 oră și 17 de minute, la 08:50 UTC
Vânt 6 kt de la Sud-est
Temperatură 34°C
Umiditate 16%
Presiune 1017 hPa
Vizibilitate de 10 km sau mai mult
nu există nori sub 1.500 m și nici cumulonimbus

METAR: LGKZ 170850Z 13006KT CAVOK 34/05 Q1017

Ora: 13:07 (10:07 UTC)


TAF: lipsă

Observații și prognoze meteo pentru peste 4.000 de aeroporturi (rapoarte METAR și TAF).

Stațiile disponibile sunt reprezentate pe hartă prin puncte galbene și roșii.

Țineți indicatorul mouse-ului pe punctul dorit pentru a vedea denumirea stației.

Apoi, faceți clic pentru a vedea observațiile și prognozele meteorologice.

Pentru a schimba harta: Pentru mărire, faceți clic pe butoanele verzi cu cruce neagră; pentru micșorare, pe butonul verde cu o liniuță; pentru hărți învecinate, pe săgețile verzi.


METAR-TAF: